sensor_id;sensor_type;location;lat;lon;timestamp;P1;durP1;ratioP1;P2;durP2;ratioP2
16689;SDS011;8458;52.220;9.884;2022-08-19T00:00:30;7.07;;;6.50;;
16689;SDS011;8458;52.220;9.884;2022-08-19T00:02:57;6.60;;;6.20;;
16689;SDS011;8458;52.220;9.884;2022-08-19T00:05:25;7.27;;;6.77;;
16689;SDS011;8458;52.220;9.884;2022-08-19T00:07:52;7.43;;;7.00;;
16689;SDS011;8458;52.220;9.884;2022-08-19T00:10:20;8.10;;;7.60;;
16689;SDS011;8458;52.220;9.884;2022-08-19T00:12:47;7.83;;;7.33;;
16689;SDS011;8458;52.220;9.884;2022-08-19T00:15:15;8.27;;;7.77;;
16689;SDS011;8458;52.220;9.884;2022-08-19T00:17:44;8.13;;;7.53;;
16689;SDS011;8458;52.220;9.884;2022-08-19T00:20:12;8.60;;;7.90;;
16689;SDS011;8458;52.220;9.884;2022-08-19T00:22:42;8.30;;;7.80;;
16689;SDS011;8458;52.220;9.884;2022-08-19T00:25:09;7.93;;;7.43;;
16689;SDS011;8458;52.220;9.884;2022-08-19T00:27:37;8.23;;;7.73;;
16689;SDS011;8458;52.220;9.884;2022-08-19T00:30:04;8.37;;;7.77;;
16689;SDS011;8458;52.220;9.884;2022-08-19T00:32:31;8.70;;;8.20;;
16689;SDS011;8458;52.220;9.884;2022-08-19T00:34:59;8.97;;;8.37;;
16689;SDS011;8458;52.220;9.884;2022-08-19T00:37:26;8.30;;;7.87;;
16689;SDS011;8458;52.220;9.884;2022-08-19T00:39:53;8.53;;;8.00;;
16689;SDS011;8458;52.220;9.884;2022-08-19T00:42:20;10.13;;;8.17;;
16689;SDS011;8458;52.220;9.884;2022-08-19T00:44:49;7.83;;;7.23;;
16689;SDS011;8458;52.220;9.884;2022-08-19T00:47:16;8.10;;;7.60;;
16689;SDS011;8458;52.220;9.884;2022-08-19T00:49:45;7.53;;;7.03;;
16689;SDS011;8458;52.220;9.884;2022-08-19T00:52:16;7.77;;;7.17;;
16689;SDS011;8458;52.220;9.884;2022-08-19T00:54:46;8.50;;;7.80;;
16689;SDS011;8458;52.220;9.884;2022-08-19T00:57:15;8.07;;;7.47;;
16689;SDS011;8458;52.220;9.884;2022-08-19T00:59:46;8.40;;;7.90;;
16689;SDS011;8458;52.220;9.884;2022-08-19T01:02:18;7.87;;;7.37;;
16689;SDS011;8458;52.220;9.884;2022-08-19T01:04:45;7.67;;;7.07;;
16689;SDS011;8458;52.220;9.884;2022-08-19T01:07:12;8.30;;;7.60;;
16689;SDS011;8458;52.220;9.884;2022-08-19T01:09:39;8.73;;;8.13;;
16689;SDS011;8458;52.220;9.884;2022-08-19T01:12:06;8.80;;;8.23;;
16689;SDS011;8458;52.220;9.884;2022-08-19T01:14:34;7.83;;;7.33;;
16689;SDS011;8458;52.220;9.884;2022-08-19T01:17:02;8.73;;;8.13;;
16689;SDS011;8458;52.220;9.884;2022-08-19T01:19:33;7.97;;;7.53;;
16689;SDS011;8458;52.220;9.884;2022-08-19T01:22:03;7.70;;;7.20;;
16689;SDS011;8458;52.220;9.884;2022-08-19T01:24:36;8.37;;;7.77;;
16689;SDS011;8458;52.220;9.884;2022-08-19T01:27:03;8.13;;;7.63;;
16689;SDS011;8458;52.220;9.884;2022-08-19T01:29:30;7.97;;;7.47;;
16689;SDS011;8458;52.220;9.884;2022-08-19T01:31:57;7.63;;;7.13;;
16689;SDS011;8458;52.220;9.884;2022-08-19T01:34:24;7.70;;;7.30;;
16689;SDS011;8458;52.220;9.884;2022-08-19T01:36:50;7.90;;;7.37;;
16689;SDS011;8458;52.220;9.884;2022-08-19T01:39:19;8.83;;;8.23;;
16689;SDS011;8458;52.220;9.884;2022-08-19T01:41:49;8.87;;;8.27;;
16689;SDS011;8458;52.220;9.884;2022-08-19T01:44:16;8.60;;;8.00;;
16689;SDS011;8458;52.220;9.884;2022-08-19T01:46:45;8.17;;;7.67;;
16689;SDS011;8458;52.220;9.884;2022-08-19T01:49:14;8.53;;;8.03;;
16689;SDS011;8458;52.220;9.884;2022-08-19T01:51:42;9.10;;;8.40;;
16689;SDS011;8458;52.220;9.884;2022-08-19T01:54:09;8.87;;;8.20;;
16689;SDS011;8458;52.220;9.884;2022-08-19T01:56:39;9.30;;;8.70;;
16689;SDS011;8458;52.220;9.884;2022-08-19T01:59:08;8.87;;;8.30;;
16689;SDS011;8458;52.220;9.884;2022-08-19T02:01:38;9.03;;;8.43;;
16689;SDS011;8458;52.220;9.884;2022-08-19T02:04:04;8.90;;;8.33;;
16689;SDS011;8458;52.220;9.884;2022-08-19T02:06:31;8.53;;;8.07;;
16689;SDS011;8458;52.220;9.884;2022-08-19T02:08:58;8.60;;;7.90;;
16689;SDS011;8458;52.220;9.884;2022-08-19T02:11:26;9.00;;;8.43;;
16689;SDS011;8458;52.220;9.884;2022-08-19T02:13:56;8.50;;;8.00;;
16689;SDS011;8458;52.220;9.884;2022-08-19T02:16:24;8.73;;;8.00;;
16689;SDS011;8458;52.220;9.884;2022-08-19T02:18:51;8.40;;;7.90;;
16689;SDS011;8458;52.220;9.884;2022-08-19T02:21:18;8.83;;;8.30;;
16689;SDS011;8458;52.220;9.884;2022-08-19T02:23:46;9.13;;;8.50;;
16689;SDS011;8458;52.220;9.884;2022-08-19T02:26:13;9.90;;;9.30;;
16689;SDS011;8458;52.220;9.884;2022-08-19T02:28:40;9.13;;;8.60;;
16689;SDS011;8458;52.220;9.884;2022-08-19T02:31:08;9.27;;;8.77;;
16689;SDS011;8458;52.220;9.884;2022-08-19T02:33:37;8.33;;;7.90;;
16689;SDS011;8458;52.220;9.884;2022-08-19T02:36:04;8.57;;;8.00;;
16689;SDS011;8458;52.220;9.884;2022-08-19T02:38:31;9.30;;;8.63;;
16689;SDS011;8458;52.220;9.884;2022-08-19T02:40:57;8.60;;;8.00;;
16689;SDS011;8458;52.220;9.884;2022-08-19T02:43:26;9.37;;;8.77;;
16689;SDS011;8458;52.220;9.884;2022-08-19T02:45:54;8.70;;;8.20;;
16689;SDS011;8458;52.220;9.884;2022-08-19T02:48:21;8.77;;;8.20;;
16689;SDS011;8458;52.220;9.884;2022-08-19T02:50:51;8.37;;;7.80;;
16689;SDS011;8458;52.220;9.884;2022-08-19T02:53:20;8.67;;;8.17;;
16689;SDS011;8458;52.220;9.884;2022-08-19T02:55:48;8.83;;;8.13;;
16689;SDS011;8458;52.220;9.884;2022-08-19T02:58:16;8.17;;;7.57;;
16689;SDS011;8458;52.220;9.884;2022-08-19T03:00:43;8.37;;;7.87;;
16689;SDS011;8458;52.220;9.884;2022-08-19T03:03:11;8.70;;;8.20;;
16689;SDS011;8458;52.220;9.884;2022-08-19T03:05:38;8.70;;;8.20;;
16689;SDS011;8458;52.220;9.884;2022-08-19T03:08:07;8.00;;;7.50;;
16689;SDS011;8458;52.220;9.884;2022-08-19T03:10:39;9.20;;;8.60;;
16689;SDS011;8458;52.220;9.884;2022-08-19T03:13:09;8.03;;;7.63;;
16689;SDS011;8458;52.220;9.884;2022-08-19T03:15:38;8.97;;;8.47;;
16689;SDS011;8458;52.220;9.884;2022-08-19T03:18:05;8.77;;;8.20;;
16689;SDS011;8458;52.220;9.884;2022-08-19T03:20:32;9.10;;;8.60;;
16689;SDS011;8458;52.220;9.884;2022-08-19T03:22:59;8.90;;;8.30;;
16689;SDS011;8458;52.220;9.884;2022-08-19T03:25:27;8.90;;;8.30;;
16689;SDS011;8458;52.220;9.884;2022-08-19T03:27:53;9.40;;;8.80;;
16689;SDS011;8458;52.220;9.884;2022-08-19T03:30:20;9.63;;;9.03;;
16689;SDS011;8458;52.220;9.884;2022-08-19T03:32:46;9.63;;;9.13;;
16689;SDS011;8458;52.220;9.884;2022-08-19T03:35:13;8.87;;;8.30;;
16689;SDS011;8458;52.220;9.884;2022-08-19T03:37:39;10.00;;;9.40;;
16689;SDS011;8458;52.220;9.884;2022-08-19T03:40:06;9.80;;;9.20;;
16689;SDS011;8458;52.220;9.884;2022-08-19T03:42:35;9.57;;;8.97;;
16689;SDS011;8458;52.220;9.884;2022-08-19T03:45:01;9.43;;;8.83;;
16689;SDS011;8458;52.220;9.884;2022-08-19T03:47:28;10.03;;;9.43;;
16689;SDS011;8458;52.220;9.884;2022-08-19T03:49:55;10.20;;;9.60;;
16689;SDS011;8458;52.220;9.884;2022-08-19T03:52:22;10.80;;;10.17;;
16689;SDS011;8458;52.220;9.884;2022-08-19T03:54:48;10.83;;;10.23;;
16689;SDS011;8458;52.220;9.884;2022-08-19T03:57:15;10.57;;;9.90;;
16689;SDS011;8458;52.220;9.884;2022-08-19T03:59:42;11.33;;;10.67;;
16689;SDS011;8458;52.220;9.884;2022-08-19T04:02:10;10.70;;;10.10;;
16689;SDS011;8458;52.220;9.884;2022-08-19T04:04:39;10.83;;;10.13;;
16689;SDS011;8458;52.220;9.884;2022-08-19T04:07:08;9.97;;;9.37;;
16689;SDS011;8458;52.220;9.884;2022-08-19T04:09:35;10.57;;;9.87;;
16689;SDS011;8458;52.220;9.884;2022-08-19T04:12:03;10.50;;;9.90;;
16689;SDS011;8458;52.220;9.884;2022-08-19T04:14:31;11.70;;;10.90;;
16689;SDS011;8458;52.220;9.884;2022-08-19T04:17:00;11.47;;;10.77;;
16689;SDS011;8458;52.220;9.884;2022-08-19T04:19:29;11.40;;;10.53;;
16689;SDS011;8458;52.220;9.884;2022-08-19T04:21:56;11.90;;;11.20;;
16689;SDS011;8458;52.220;9.884;2022-08-19T04:24:24;11.70;;;11.00;;
16689;SDS011;8458;52.220;9.884;2022-08-19T04:26:50;11.73;;;11.03;;
16689;SDS011;8458;52.220;9.884;2022-08-19T04:29:18;11.50;;;10.87;;
16689;SDS011;8458;52.220;9.884;2022-08-19T04:31:46;11.73;;;11.03;;
16689;SDS011;8458;52.220;9.884;2022-08-19T04:34:16;11.33;;;10.63;;
16689;SDS011;8458;52.220;9.884;2022-08-19T04:36:47;10.57;;;9.97;;
16689;SDS011;8458;52.220;9.884;2022-08-19T04:39:17;10.33;;;9.63;;
16689;SDS011;8458;52.220;9.884;2022-08-19T04:41:45;9.80;;;9.20;;
16689;SDS011;8458;52.220;9.884;2022-08-19T04:44:30;9.73;;;8.80;;
16689;SDS011;8458;52.220;9.884;2022-08-19T04:46:57;10.13;;;9.53;;
16689;SDS011;8458;52.220;9.884;2022-08-19T04:49:25;9.53;;;9.00;;
16689;SDS011;8458;52.220;9.884;2022-08-19T04:51:52;9.83;;;9.33;;
16689;SDS011;8458;52.220;9.884;2022-08-19T04:54:20;10.03;;;9.33;;
16689;SDS011;8458;52.220;9.884;2022-08-19T04:56:48;9.33;;;8.73;;
16689;SDS011;8458;52.220;9.884;2022-08-19T04:59:15;9.07;;;8.37;;
16689;SDS011;8458;52.220;9.884;2022-08-19T05:01:43;9.87;;;9.17;;
16689;SDS011;8458;52.220;9.884;2022-08-19T05:04:15;9.70;;;9.10;;
16689;SDS011;8458;52.220;9.884;2022-08-19T05:06:45;8.73;;;8.10;;
16689;SDS011;8458;52.220;9.884;2022-08-19T05:09:13;9.37;;;8.80;;
16689;SDS011;8458;52.220;9.884;2022-08-19T05:11:40;9.63;;;9.00;;
16689;SDS011;8458;52.220;9.884;2022-08-19T05:14:07;9.37;;;8.77;;
16689;SDS011;8458;52.220;9.884;2022-08-19T05:16:34;9.40;;;8.70;;
16689;SDS011;8458;52.220;9.884;2022-08-19T05:19:01;8.37;;;7.97;;
16689;SDS011;8458;52.220;9.884;2022-08-19T05:21:46;8.70;;;8.10;;
16689;SDS011;8458;52.220;9.884;2022-08-19T05:24:30;8.27;;;7.77;;
16689;SDS011;8458;52.220;9.884;2022-08-19T05:26:59;8.27;;;7.77;;
16689;SDS011;8458;52.220;9.884;2022-08-19T05:29:27;8.37;;;7.87;;
16689;SDS011;8458;52.220;9.884;2022-08-19T05:31:56;8.90;;;8.33;;
16689;SDS011;8458;52.220;9.884;2022-08-19T05:34:24;9.37;;;8.77;;
16689;SDS011;8458;52.220;9.884;2022-08-19T05:36:52;9.40;;;8.80;;
16689;SDS011;8458;52.220;9.884;2022-08-19T05:39:22;10.03;;;9.43;;
16689;SDS011;8458;52.220;9.884;2022-08-19T05:41:51;9.50;;;9.00;;
16689;SDS011;8458;52.220;9.884;2022-08-19T05:44:19;9.10;;;8.50;;
16689;SDS011;8458;52.220;9.884;2022-08-19T05:46:46;8.90;;;8.33;;
16689;SDS011;8458;52.220;9.884;2022-08-19T05:49:13;9.10;;;8.47;;
16689;SDS011;8458;52.220;9.884;2022-08-19T05:51:41;9.37;;;8.67;;
16689;SDS011;8458;52.220;9.884;2022-08-19T05:54:10;9.67;;;9.17;;
16689;SDS011;8458;52.220;9.884;2022-08-19T05:56:38;9.47;;;8.87;;
16689;SDS011;8458;52.220;9.884;2022-08-19T05:59:05;9.57;;;9.00;;
16689;SDS011;8458;52.220;9.884;2022-08-19T06:01:34;9.90;;;9.30;;
16689;SDS011;8458;52.220;9.884;2022-08-19T06:04:02;9.87;;;9.27;;
16689;SDS011;8458;52.220;9.884;2022-08-19T06:06:29;10.80;;;10.20;;
16689;SDS011;8458;52.220;9.884;2022-08-19T06:08:58;11.30;;;10.50;;
16689;SDS011;8458;52.220;9.884;2022-08-19T06:11:31;11.87;;;11.17;;
16689;SDS011;8458;52.220;9.884;2022-08-19T06:14:00;11.43;;;10.63;;
16689;SDS011;8458;52.220;9.884;2022-08-19T06:16:28;11.63;;;10.93;;
16689;SDS011;8458;52.220;9.884;2022-08-19T06:18:57;12.00;;;11.30;;
16689;SDS011;8458;52.220;9.884;2022-08-19T06:21:27;11.70;;;11.00;;
16689;SDS011;8458;52.220;9.884;2022-08-19T06:23:54;11.40;;;10.70;;
16689;SDS011;8458;52.220;9.884;2022-08-19T06:26:22;11.13;;;10.53;;
16689;SDS011;8458;52.220;9.884;2022-08-19T06:28:51;11.47;;;10.80;;
16689;SDS011;8458;52.220;9.884;2022-08-19T06:31:19;12.60;;;11.80;;
16689;SDS011;8458;52.220;9.884;2022-08-19T06:33:47;11.50;;;10.80;;
16689;SDS011;8458;52.220;9.884;2022-08-19T06:36:19;13.57;;;12.33;;
16689;SDS011;8458;52.220;9.884;2022-08-19T06:38:47;12.10;;;11.40;;
16689;SDS011;8458;52.220;9.884;2022-08-19T06:41:13;13.57;;;12.77;;
16689;SDS011;8458;52.220;9.884;2022-08-19T06:43:40;12.87;;;12.03;;
16689;SDS011;8458;52.220;9.884;2022-08-19T06:46:13;13.87;;;13.07;;
16689;SDS011;8458;52.220;9.884;2022-08-19T06:48:43;13.70;;;12.90;;
16689;SDS011;8458;52.220;9.884;2022-08-19T06:51:10;14.47;;;12.60;;
16689;SDS011;8458;52.220;9.884;2022-08-19T06:53:40;16.90;;;15.17;;
16689;SDS011;8458;52.220;9.884;2022-08-19T06:56:12;15.83;;;14.87;;
16689;SDS011;8458;52.220;9.884;2022-08-19T06:58:39;16.20;;;15.20;;
16689;SDS011;8458;52.220;9.884;2022-08-19T07:01:06;17.73;;;16.63;;
16689;SDS011;8458;52.220;9.884;2022-08-19T07:03:34;16.47;;;15.37;;
16689;SDS011;8458;52.220;9.884;2022-08-19T07:06:02;16.03;;;15.03;;
16689;SDS011;8458;52.220;9.884;2022-08-19T07:08:29;16.73;;;15.63;;
16689;SDS011;8458;52.220;9.884;2022-08-19T07:10:55;17.23;;;16.13;;
16689;SDS011;8458;52.220;9.884;2022-08-19T07:13:22;17.47;;;16.37;;
16689;SDS011;8458;52.220;9.884;2022-08-19T07:15:49;17.17;;;16.17;;
16689;SDS011;8458;52.220;9.884;2022-08-19T07:18:16;16.90;;;15.90;;
16689;SDS011;8458;52.220;9.884;2022-08-19T07:20:46;16.93;;;15.93;;
16689;SDS011;8458;52.220;9.884;2022-08-19T07:23:13;16.30;;;15.30;;
16689;SDS011;8458;52.220;9.884;2022-08-19T07:25:40;16.17;;;14.87;;
16689;SDS011;8458;52.220;9.884;2022-08-19T07:28:08;16.63;;;15.53;;
16689;SDS011;8458;52.220;9.884;2022-08-19T07:30:37;15.77;;;14.53;;
16689;SDS011;8458;52.220;9.884;2022-08-19T07:33:05;15.03;;;14.03;;
16689;SDS011;8458;52.220;9.884;2022-08-19T07:35:32;14.80;;;13.90;;
16689;SDS011;8458;52.220;9.884;2022-08-19T07:38:00;15.37;;;14.47;;
16689;SDS011;8458;52.220;9.884;2022-08-19T07:40:28;14.67;;;13.77;;
16689;SDS011;8458;52.220;9.884;2022-08-19T07:42:55;15.73;;;14.73;;
16689;SDS011;8458;52.220;9.884;2022-08-19T07:45:22;15.93;;;14.83;;
16689;SDS011;8458;52.220;9.884;2022-08-19T07:47:48;13.93;;;13.13;;
16689;SDS011;8458;52.220;9.884;2022-08-19T07:50:15;12.87;;;12.07;;
16689;SDS011;8458;52.220;9.884;2022-08-19T07:52:42;13.47;;;12.63;;
16689;SDS011;8458;52.220;9.884;2022-08-19T07:55:10;13.40;;;12.60;;
16689;SDS011;8458;52.220;9.884;2022-08-19T07:57:37;12.63;;;11.87;;
16689;SDS011;8458;52.220;9.884;2022-08-19T08:00:05;13.60;;;12.83;;
16689;SDS011;8458;52.220;9.884;2022-08-19T08:02:33;13.03;;;12.33;;
16689;SDS011;8458;52.220;9.884;2022-08-19T08:04:59;11.60;;;10.90;;
16689;SDS011;8458;52.220;9.884;2022-08-19T08:07:43;11.17;;;10.47;;
16689;SDS011;8458;52.220;9.884;2022-08-19T08:10:29;11.50;;;10.90;;
16689;SDS011;8458;52.220;9.884;2022-08-19T08:12:55;12.07;;;11.37;;
16689;SDS011;8458;52.220;9.884;2022-08-19T08:15:22;11.77;;;11.07;;
16689;SDS011;8458;52.220;9.884;2022-08-19T08:17:49;11.73;;;11.13;;
16689;SDS011;8458;52.220;9.884;2022-08-19T08:20:15;11.47;;;10.80;;
16689;SDS011;8458;52.220;9.884;2022-08-19T08:22:42;11.37;;;10.67;;
16689;SDS011;8458;52.220;9.884;2022-08-19T08:25:29;11.27;;;10.60;;
16689;SDS011;8458;52.220;9.884;2022-08-19T08:27:57;10.47;;;9.77;;
16689;SDS011;8458;52.220;9.884;2022-08-19T08:30:25;10.57;;;9.97;;
16689;SDS011;8458;52.220;9.884;2022-08-19T08:32:53;10.27;;;9.73;;
16689;SDS011;8458;52.220;9.884;2022-08-19T08:35:21;10.97;;;10.33;;
16689;SDS011;8458;52.220;9.884;2022-08-19T08:37:49;11.00;;;10.40;;
16689;SDS011;8458;52.220;9.884;2022-08-19T08:40:18;10.87;;;10.27;;
16689;SDS011;8458;52.220;9.884;2022-08-19T08:42:51;10.60;;;10.00;;
16689;SDS011;8458;52.220;9.884;2022-08-19T08:45:25;11.87;;;11.20;;
16689;SDS011;8458;52.220;9.884;2022-08-19T08:47:53;10.50;;;9.90;;
16689;SDS011;8458;52.220;9.884;2022-08-19T08:50:27;10.40;;;9.83;;
16689;SDS011;8458;52.220;9.884;2022-08-19T08:53:00;9.10;;;8.60;;
16689;SDS011;8458;52.220;9.884;2022-08-19T08:55:28;10.23;;;9.43;;
16689;SDS011;8458;52.220;9.884;2022-08-19T08:57:59;10.03;;;9.53;;
16689;SDS011;8458;52.220;9.884;2022-08-19T09:00:28;9.13;;;8.53;;
16689;SDS011;8458;52.220;9.884;2022-08-19T09:02:57;8.63;;;8.10;;
16689;SDS011;8458;52.220;9.884;2022-08-19T09:05:25;8.37;;;7.93;;
16689;SDS011;8458;52.220;9.884;2022-08-19T09:08:04;7.63;;;7.13;;
16689;SDS011;8458;52.220;9.884;2022-08-19T09:10:37;6.37;;;6.07;;
16689;SDS011;8458;52.220;9.884;2022-08-19T09:13:07;6.07;;;5.67;;
16689;SDS011;8458;52.220;9.884;2022-08-19T09:15:44;6.57;;;6.17;;
16689;SDS011;8458;52.220;9.884;2022-08-19T09:18:14;5.50;;;5.10;;
16689;SDS011;8458;52.220;9.884;2022-08-19T09:20:42;5.93;;;5.63;;
16689;SDS011;8458;52.220;9.884;2022-08-19T09:23:08;6.70;;;6.30;;
16689;SDS011;8458;52.220;9.884;2022-08-19T09:25:36;6.07;;;5.70;;
16689;SDS011;8458;52.220;9.884;2022-08-19T09:28:05;5.27;;;4.97;;
16689;SDS011;8458;52.220;9.884;2022-08-19T09:30:34;4.63;;;4.40;;
16689;SDS011;8458;52.220;9.884;2022-08-19T09:33:06;5.03;;;4.73;;
16689;SDS011;8458;52.220;9.884;2022-08-19T09:35:33;4.87;;;4.67;;
16689;SDS011;8458;52.220;9.884;2022-08-19T09:38:00;5.93;;;5.63;;
16689;SDS011;8458;52.220;9.884;2022-08-19T09:40:27;6.07;;;5.67;;
16689;SDS011;8458;52.220;9.884;2022-08-19T09:42:54;5.50;;;5.20;;
16689;SDS011;8458;52.220;9.884;2022-08-19T09:45:23;5.83;;;5.50;;
16689;SDS011;8458;52.220;9.884;2022-08-19T09:47:50;5.83;;;5.53;;
16689;SDS011;8458;52.220;9.884;2022-08-19T09:50:18;6.17;;;5.77;;
16689;SDS011;8458;52.220;9.884;2022-08-19T09:52:45;6.60;;;6.20;;
16689;SDS011;8458;52.220;9.884;2022-08-19T09:55:12;5.60;;;5.20;;
16689;SDS011;8458;52.220;9.884;2022-08-19T09:57:38;5.10;;;4.73;;
16689;SDS011;8458;52.220;9.884;2022-08-19T10:00:06;4.53;;;4.23;;
16689;SDS011;8458;52.220;9.884;2022-08-19T10:02:36;4.40;;;4.10;;
16689;SDS011;8458;52.220;9.884;2022-08-19T10:05:03;4.07;;;3.77;;
16689;SDS011;8458;52.220;9.884;2022-08-19T10:07:47;4.87;;;4.57;;
16689;SDS011;8458;52.220;9.884;2022-08-19T10:10:14;3.73;;;3.53;;
16689;SDS011;8458;52.220;9.884;2022-08-19T10:12:41;3.10;;;2.80;;
16689;SDS011;8458;52.220;9.884;2022-08-19T10:15:12;3.00;;;2.80;;
16689;SDS011;8458;52.220;9.884;2022-08-19T10:17:41;3.77;;;3.20;;
16689;SDS011;8458;52.220;9.884;2022-08-19T10:20:07;3.73;;;3.07;;
16689;SDS011;8458;52.220;9.884;2022-08-19T10:22:35;2.53;;;2.37;;
16689;SDS011;8458;52.220;9.884;2022-08-19T10:25:02;2.90;;;2.70;;
16689;SDS011;8458;52.220;9.884;2022-08-19T10:27:30;2.47;;;2.37;;
16689;SDS011;8458;52.220;9.884;2022-08-19T10:29:57;2.80;;;2.60;;
16689;SDS011;8458;52.220;9.884;2022-08-19T10:32:23;2.93;;;2.73;;
16689;SDS011;8458;52.220;9.884;2022-08-19T10:34:51;2.57;;;2.37;;
16689;SDS011;8458;52.220;9.884;2022-08-19T10:37:18;2.80;;;2.60;;
16689;SDS011;8458;52.220;9.884;2022-08-19T10:39:45;2.47;;;2.27;;
16689;SDS011;8458;52.220;9.884;2022-08-19T10:42:13;2.20;;;2.00;;
16689;SDS011;8458;52.220;9.884;2022-08-19T10:44:41;2.60;;;2.40;;
16689;SDS011;8458;52.220;9.884;2022-08-19T10:47:07;1.80;;;1.67;;
16689;SDS011;8458;52.220;9.884;2022-08-19T10:49:34;1.80;;;1.70;;
16689;SDS011;8458;52.220;9.884;2022-08-19T10:52:22;1.70;;;1.60;;
16689;SDS011;8458;52.220;9.884;2022-08-19T10:55:00;1.20;;;1.10;;
16689;SDS011;8458;52.220;9.884;2022-08-19T10:57:44;1.27;;;1.17;;
16689;SDS011;8458;52.220;9.884;2022-08-19T11:00:11;3.10;;;1.20;;
16689;SDS011;8458;52.220;9.884;2022-08-19T11:02:38;1.40;;;1.10;;
16689;SDS011;8458;52.220;9.884;2022-08-19T11:05:06;1.27;;;1.00;;
16689;SDS011;8458;52.220;9.884;2022-08-19T11:07:37;1.10;;;1.00;;
16689;SDS011;8458;52.220;9.884;2022-08-19T11:10:04;1.20;;;1.10;;
16689;SDS011;8458;52.220;9.884;2022-08-19T11:12:31;1.37;;;1.00;;
16689;SDS011;8458;52.220;9.884;2022-08-19T11:14:58;1.03;;;0.93;;
16689;SDS011;8458;52.220;9.884;2022-08-19T11:17:24;0.90;;;0.90;;
16689;SDS011;8458;52.220;9.884;2022-08-19T11:19:51;0.87;;;0.63;;
16689;SDS011;8458;52.220;9.884;2022-08-19T11:22:17;1.10;;;0.80;;
16689;SDS011;8458;52.220;9.884;2022-08-19T11:24:46;0.80;;;0.80;;
16689;SDS011;8458;52.220;9.884;2022-08-19T11:27:12;1.00;;;0.90;;
16689;SDS011;8458;52.220;9.884;2022-08-19T11:29:39;0.80;;;0.80;;
16689;SDS011;8458;52.220;9.884;2022-08-19T11:32:06;0.87;;;0.87;;
16689;SDS011;8458;52.220;9.884;2022-08-19T11:34:35;0.95;;;0.90;;
16689;SDS011;8458;52.220;9.884;2022-08-19T11:37:01;0.88;;;0.70;;
16689;SDS011;8458;52.220;9.884;2022-08-19T11:39:29;0.93;;;0.90;;
16689;SDS011;8458;52.220;9.884;2022-08-19T11:41:58;0.83;;;0.83;;
16689;SDS011;8458;52.220;9.884;2022-08-19T11:44:26;1.23;;;1.13;;
16689;SDS011;8458;52.220;9.884;2022-08-19T11:46:55;0.80;;;0.80;;
16689;SDS011;8458;52.220;9.884;2022-08-19T11:49:22;1.03;;;1.00;;
16689;SDS011;8458;52.220;9.884;2022-08-19T11:51:49;1.13;;;0.97;;
16689;SDS011;8458;52.220;9.884;2022-08-19T11:54:16;1.88;;;0.90;;
16689;SDS011;8458;52.220;9.884;2022-08-19T11:56:43;1.15;;;0.95;;
16689;SDS011;8458;52.220;9.884;2022-08-19T11:59:14;0.90;;;0.90;;
16689;SDS011;8458;52.220;9.884;2022-08-19T12:01:40;1.20;;;1.10;;
16689;SDS011;8458;52.220;9.884;2022-08-19T12:04:08;0.98;;;0.98;;
16689;SDS011;8458;52.220;9.884;2022-08-19T12:06:37;1.13;;;1.02;;
16689;SDS011;8458;52.220;9.884;2022-08-19T12:09:06;1.03;;;1.03;;
16689;SDS011;8458;52.220;9.884;2022-08-19T12:11:35;1.20;;;0.98;;
16689;SDS011;8458;52.220;9.884;2022-08-19T12:14:02;1.10;;;1.10;;
16689;SDS011;8458;52.220;9.884;2022-08-19T12:16:30;1.25;;;1.10;;
16689;SDS011;8458;52.220;9.884;2022-08-19T12:18:58;1.10;;;1.10;;
16689;SDS011;8458;52.220;9.884;2022-08-19T12:21:29;0.93;;;0.93;;
16689;SDS011;8458;52.220;9.884;2022-08-19T12:23:57;2.53;;;1.00;;
16689;SDS011;8458;52.220;9.884;2022-08-19T12:26:25;0.90;;;0.90;;
16689;SDS011;8458;52.220;9.884;2022-08-19T12:28:53;1.23;;;1.13;;
16689;SDS011;8458;52.220;9.884;2022-08-19T12:31:20;1.75;;;1.00;;
16689;SDS011;8458;52.220;9.884;2022-08-19T12:33:48;1.63;;;0.90;;
16689;SDS011;8458;52.220;9.884;2022-08-19T12:36:17;0.82;;;0.73;;
16689;SDS011;8458;52.220;9.884;2022-08-19T12:38:44;1.33;;;0.85;;
16689;SDS011;8458;52.220;9.884;2022-08-19T12:41:13;0.60;;;0.60;;
16689;SDS011;8458;52.220;9.884;2022-08-19T12:43:43;0.85;;;0.80;;
16689;SDS011;8458;52.220;9.884;2022-08-19T12:46:10;0.90;;;0.90;;
16689;SDS011;8458;52.220;9.884;2022-08-19T12:48:37;0.90;;;0.88;;
16689;SDS011;8458;52.220;9.884;2022-08-19T12:51:08;0.88;;;0.88;;
16689;SDS011;8458;52.220;9.884;2022-08-19T12:53:37;1.13;;;0.90;;
16689;SDS011;8458;52.220;9.884;2022-08-19T12:56:04;1.10;;;0.80;;
16689;SDS011;8458;52.220;9.884;2022-08-19T12:58:31;0.70;;;0.65;;
16689;SDS011;8458;52.220;9.884;2022-08-19T13:00:59;0.93;;;0.70;;
16689;SDS011;8458;52.220;9.884;2022-08-19T13:03:26;1.02;;;0.77;;
16689;SDS011;8458;52.220;9.884;2022-08-19T13:05:54;0.80;;;0.70;;
16689;SDS011;8458;52.220;9.884;2022-08-19T13:08:22;0.93;;;0.70;;
16689;SDS011;8458;52.220;9.884;2022-08-19T13:10:49;1.65;;;0.80;;
16689;SDS011;8458;52.220;9.884;2022-08-19T13:13:15;0.70;;;0.70;;
16689;SDS011;8458;52.220;9.884;2022-08-19T13:15:42;0.80;;;0.80;;
16689;SDS011;8458;52.220;9.884;2022-08-19T13:18:10;1.70;;;0.90;;
16689;SDS011;8458;52.220;9.884;2022-08-19T13:20:38;0.80;;;0.80;;
16689;SDS011;8458;52.220;9.884;2022-08-19T13:23:06;0.82;;;0.80;;
16689;SDS011;8458;52.220;9.884;2022-08-19T13:25:34;0.80;;;0.80;;
16689;SDS011;8458;52.220;9.884;2022-08-19T13:28:02;0.80;;;0.80;;
16689;SDS011;8458;52.220;9.884;2022-08-19T13:30:28;1.23;;;0.73;;
16689;SDS011;8458;52.220;9.884;2022-08-19T13:33:13;1.35;;;0.82;;
16689;SDS011;8458;52.220;9.884;2022-08-19T13:35:44;0.82;;;0.80;;
16689;SDS011;8458;52.220;9.884;2022-08-19T13:38:12;1.27;;;0.60;;
16689;SDS011;8458;52.220;9.884;2022-08-19T13:40:42;0.82;;;0.70;;
16689;SDS011;8458;52.220;9.884;2022-08-19T13:43:09;1.70;;;0.82;;
16689;SDS011;8458;52.220;9.884;2022-08-19T13:45:35;0.60;;;0.60;;
16689;SDS011;8458;52.220;9.884;2022-08-19T13:48:03;0.65;;;0.60;;
16689;SDS011;8458;52.220;9.884;2022-08-19T13:50:33;0.75;;;0.75;;
16689;SDS011;8458;52.220;9.884;2022-08-19T13:53:01;0.70;;;0.70;;
16689;SDS011;8458;52.220;9.884;2022-08-19T13:55:29;0.95;;;0.70;;
16689;SDS011;8458;52.220;9.884;2022-08-19T13:57:58;0.65;;;0.65;;
16689;SDS011;8458;52.220;9.884;2022-08-19T14:00:28;0.95;;;0.80;;
16689;SDS011;8458;52.220;9.884;2022-08-19T14:02:56;1.17;;;0.82;;
16689;SDS011;8458;52.220;9.884;2022-08-19T14:05:24;0.73;;;0.70;;
16689;SDS011;8458;52.220;9.884;2022-08-19T14:07:52;0.60;;;0.60;;
16689;SDS011;8458;52.220;9.884;2022-08-19T14:10:18;0.85;;;0.70;;
16689;SDS011;8458;52.220;9.884;2022-08-19T14:12:46;0.60;;;0.60;;
16689;SDS011;8458;52.220;9.884;2022-08-19T14:15:14;0.63;;;0.55;;
16689;SDS011;8458;52.220;9.884;2022-08-19T14:17:42;0.70;;;0.70;;
16689;SDS011;8458;52.220;9.884;2022-08-19T14:20:12;0.60;;;0.60;;
16689;SDS011;8458;52.220;9.884;2022-08-19T14:22:40;0.60;;;0.60;;
16689;SDS011;8458;52.220;9.884;2022-08-19T14:25:08;0.80;;;0.60;;
16689;SDS011;8458;52.220;9.884;2022-08-19T14:27:37;1.02;;;0.80;;
16689;SDS011;8458;52.220;9.884;2022-08-19T14:30:06;1.02;;;0.80;;
16689;SDS011;8458;52.220;9.884;2022-08-19T14:32:36;1.27;;;0.73;;
16689;SDS011;8458;52.220;9.884;2022-08-19T14:35:03;0.70;;;0.70;;
16689;SDS011;8458;52.220;9.884;2022-08-19T14:37:30;2.28;;;0.68;;
16689;SDS011;8458;52.220;9.884;2022-08-19T14:39:58;0.60;;;0.60;;
16689;SDS011;8458;52.220;9.884;2022-08-19T14:42:25;0.60;;;0.60;;
16689;SDS011;8458;52.220;9.884;2022-08-19T14:44:51;1.02;;;0.68;;
16689;SDS011;8458;52.220;9.884;2022-08-19T14:47:18;0.73;;;0.73;;
16689;SDS011;8458;52.220;9.884;2022-08-19T14:49:46;0.85;;;0.70;;
16689;SDS011;8458;52.220;9.884;2022-08-19T14:52:13;1.40;;;0.70;;
16689;SDS011;8458;52.220;9.884;2022-08-19T14:54:39;1.38;;;0.70;;
16689;SDS011;8458;52.220;9.884;2022-08-19T14:57:06;0.68;;;0.65;;
16689;SDS011;8458;52.220;9.884;2022-08-19T14:59:33;0.63;;;0.60;;
16689;SDS011;8458;52.220;9.884;2022-08-19T15:02:00;0.80;;;0.60;;